Time;durP1;ratioP1;P1;durP2;ratioP2;P2;SDS_P1;SDS_P2;PMS_P1;PMS_P2;Temp;Humidity;BMP_temperature;BMP_pressure;BME280_temperature;BME280_humidity;BME280_pressure;Samples;Min_cycle;Max_cycle;Signal;HPM_P1;HPM_P2
2021/10/06 00:00:43;;;;;;;;;0.00;0.00;;;;;;;;5081659;27;45631;-87
2021/10/06 00:03:08;;;;;;;;;0.00;0.00;;;;;;;;5099702;27;46111;-87
2021/10/06 00:05:33;;;;;;;;;2.50;0.00;;;;;;;;5081839;27;45358;-88
2021/10/06 00:07:58;;;;;;;;;1.00;1.00;;;;;;;;5103580;27;45224;-88
2021/10/06 00:10:24;;;;;;;;;1.00;0.00;;;;;;;;5102787;27;45433;-88
2021/10/06 00:12:49;;;;;;;;;1.25;1.00;;;;;;;;5102687;27;46262;-88
2021/10/06 00:15:14;;;;;;;;;3.75;0.75;;;;;;;;5086953;27;45256;-88
2021/10/06 00:17:40;;;;;;;;;0.00;0.00;;;;;;;;5095608;27;45355;-88
2021/10/06 00:20:06;;;;;;;;;1.50;0.00;;;;;;;;5096978;27;45511;-87
2021/10/06 00:22:31;;;;;;;;;2.00;1.50;;;;;;;;5103566;27;45192;-87
2021/10/06 00:24:56;;;;;;;;;1.75;1.00;;;;;;;;5103760;27;45299;-87
2021/10/06 00:27:22;;;;;;;;;1.25;0.75;;;;;;;;5090502;27;45260;-88
2021/10/06 00:29:47;;;;;;;;;2.25;1.75;;;;;;;;5109433;27;44817;-87
2021/10/06 00:32:13;;;;;;;;;1.00;0.00;;;;;;;;5091255;27;47549;-87
2021/10/06 00:34:38;;;;;;;;;1.00;1.00;;;;;;;;5110286;27;45173;-87
2021/10/06 00:37:03;;;;;;;;;2.00;0.50;;;;;;;;5124870;27;45534;-87
2021/10/06 00:39:28;;;;;;;;;2.00;0.75;;;;;;;;5112003;27;44849;-87
2021/10/06 00:41:54;;;;;;;;;0.50;0.00;;;;;;;;5128550;27;44967;-86
2021/10/06 00:44:20;;;;;;;;;3.25;0.50;;;;;;;;5101011;27;45257;-87
2021/10/06 00:46:46;;;;;;;;;0.75;0.75;;;;;;;;5103956;27;45356;-87
2021/10/06 00:49:12;;;;;;;;;2.00;1.25;;;;;;;;5104474;27;45481;-87
2021/10/06 00:51:38;;;;;;;;;0.50;0.50;;;;;;;;5107009;27;45311;-87
2021/10/06 00:54:04;;;;;;;;;0.25;0.25;;;;;;;;5107644;27;45189;-86
2021/10/06 00:56:29;;;;;;;;;1.50;1.00;;;;;;;;5087065;27;45503;-87
2021/10/06 00:58:55;;;;;;;;;5.50;1.00;;;;;;;;5106645;27;45151;-87
2021/10/06 01:01:20;;;;;;;;;0.50;0.50;;;;;;;;5102596;27;45691;-86
2021/10/06 01:03:45;;;;;;;;;1.50;0.00;;;;;;;;5088525;27;45226;-86
2021/10/06 01:06:10;;;;;;;;;4.00;1.00;;;;;;;;5088518;27;45398;-86
2021/10/06 01:08:36;;;;;;;;;1.75;0.50;;;;;;;;5096120;27;45222;-86
2021/10/06 01:11:02;;;;;;;;;2.25;1.00;;;;;;;;5083693;27;45430;-86
2021/10/06 01:13:27;;;;;;;;;0.00;0.00;;;;;;;;5081324;27;45740;-86
2021/10/06 01:15:52;;;;;;;;;0.67;0.67;;;;;;;;5102932;27;45305;-86
2021/10/06 01:18:18;;;;;;;;;6.00;1.00;;;;;;;;5083586;27;45406;-86
2021/10/06 01:20:43;;;;;;;;;2.50;1.00;;;;;;;;5083761;27;47005;-86
2021/10/06 01:23:08;;;;;;;;;1.00;1.00;;;;;;;;5102983;27;45443;-86
2021/10/06 01:25:36;;;;;;;;;2.75;1.00;;;;;;;;5103027;27;45388;-86
2021/10/06 01:28:02;;;;;;;;;0.00;0.00;;;;;;;;5102649;27;45355;-86
2021/10/06 01:30:27;;;;;;;;;1.50;0.25;;;;;;;;5104975;27;45948;-86
2021/10/06 01:32:52;;;;;;;;;1.25;0.25;;;;;;;;5087490;27;45433;-87
2021/10/06 01:35:18;;;;;;;;;1.25;0.00;;;;;;;;5085754;27;45276;-86
2021/10/06 01:37:44;;;;;;;;;2.00;0.00;;;;;;;;5102339;27;45329;-87
2021/10/06 01:40:11;;;;;;;;;0.50;0.50;;;;;;;;5083971;27;47152;-86
2021/10/06 01:42:36;;;;;;;;;0.00;0.00;;;;;;;;5101202;27;45451;-86
2021/10/06 01:45:02;;;;;;;;;1.00;0.00;;;;;;;;5084105;27;45268;-87
2021/10/06 01:47:28;;;;;;;;;0.00;0.00;;;;;;;;5083165;27;45595;-86
2021/10/06 01:49:53;;;;;;;;;0.00;0.00;;;;;;;;5102307;27;45410;-86
2021/10/06 01:52:19;;;;;;;;;3.00;0.00;;;;;;;;5101944;27;45443;-86
2021/10/06 01:54:45;;;;;;;;;0.25;0.00;;;;;;;;5083890;27;45346;-86
2021/10/06 01:57:10;;;;;;;;;0.00;0.00;;;;;;;;5100664;27;45555;-86
2021/10/06 01:59:35;;;;;;;;;0.75;0.75;;;;;;;;5101847;27;45394;-86
2021/10/06 02:02:01;;;;;;;;;1.00;1.00;;;;;;;;5082981;27;45564;-87
2021/10/06 02:04:26;;;;;;;;;0.50;0.00;;;;;;;;5102345;27;45514;-86
2021/10/06 02:06:51;;;;;;;;;2.00;0.67;;;;;;;;5083134;27;45335;-86
2021/10/06 02:09:16;;;;;;;;;2.67;2.67;;;;;;;;5082796;27;47197;-86
2021/10/06 02:11:42;;;;;;;;;1.00;1.00;;;;;;;;5083478;27;45479;-86
2021/10/06 02:14:07;;;;;;;;;0.00;0.00;;;;;;;;5099669;27;45472;-86
2021/10/06 02:16:32;;;;;;;;;1.00;0.00;;;;;;;;5082178;27;45394;-86
2021/10/06 02:18:57;;;;;;;;;0.67;0.00;;;;;;;;5101492;27;45435;-86
2021/10/06 02:21:22;;;;;;;;;1.33;1.00;;;;;;;;5101655;27;45425;-87
2021/10/06 02:23:48;;;;;;;;;0.33;0.33;;;;;;;;5102291;27;45388;-87
2021/10/06 02:26:13;;;;;;;;;2.33;1.00;;;;;;;;5082886;27;45422;-86
2021/10/06 02:28:38;;;;;;;;;4.00;1.00;;;;;;;;5101218;27;46595;-86
2021/10/06 02:31:04;;;;;;;;;0.00;0.00;;;;;;;;5100754;27;45449;-87
2021/10/06 02:33:29;;;;;;;;;1.25;0.25;;;;;;;;5083168;27;45514;-86
2021/10/06 02:35:54;;;;;;;;;2.00;1.00;;;;;;;;5100733;27;45265;-86
2021/10/06 02:38:19;;;;;;;;;1.00;1.00;;;;;;;;5101339;27;46194;-86
2021/10/06 02:40:45;;;;;;;;;0.75;0.00;;;;;;;;5101274;27;45233;-86
2021/10/06 02:43:10;;;;;;;;;0.75;0.75;;;;;;;;5083292;27;45527;-87
2021/10/06 02:45:35;;;;;;;;;0.00;0.00;;;;;;;;5084108;27;45490;-87
2021/10/06 02:48:01;;;;;;;;;2.00;0.00;;;;;;;;5083945;27;47062;-86
2021/10/06 02:50:26;;;;;;;;;1.00;0.00;;;;;;;;5104507;27;46778;-86
2021/10/06 02:52:51;;;;;;;;;1.50;0.00;;;;;;;;5102033;27;45306;-86
2021/10/06 02:55:16;;;;;;;;;1.00;0.00;;;;;;;;5114649;27;8824;-86
2021/10/06 02:57:42;;;;;;;;;0.00;0.00;;;;;;;;5086927;27;45704;-86
2021/10/06 03:00:08;;;;;;;;;3.50;0.75;;;;;;;;5104240;27;45174;-87
2021/10/06 03:02:34;;;;;;;;;2.00;0.00;;;;;;;;5117275;27;28575;-87
2021/10/06 03:04:59;;;;;;;;;0.50;0.50;;;;;;;;5098617;27;28479;-86
2021/10/06 03:07:24;;;;;;;;;2.00;0.00;;;;;;;;5117320;27;28374;-86
2021/10/06 03:09:50;;;;;;;;;2.00;1.00;;;;;;;;5117243;27;28624;-86
2021/10/06 03:12:15;;;;;;;;;1.75;0.00;;;;;;;;5098848;27;28523;-86
2021/10/06 03:14:40;;;;;;;;;0.00;0.00;;;;;;;;5117042;27;28534;-87
2021/10/06 03:17:06;;;;;;;;;2.00;0.25;;;;;;;;5097881;27;29914;-86
2021/10/06 03:19:31;;;;;;;;;2.25;0.00;;;;;;;;5098236;27;29553;-86
2021/10/06 03:21:56;;;;;;;;;3.00;0.75;;;;;;;;5117413;27;28321;-87
2021/10/06 03:24:21;;;;;;;;;2.00;0.75;;;;;;;;5115586;27;44729;-86
2021/10/06 03:26:47;;;;;;;;;0.75;0.75;;;;;;;;5116540;27;42020;-87
2021/10/06 03:29:12;;;;;;;;;0.00;0.00;;;;;;;;5114578;27;45400;-86
2021/10/06 03:31:37;;;;;;;;;0.00;0.00;;;;;;;;5104117;27;45305;-87
2021/10/06 03:34:02;;;;;;;;;0.00;0.00;;;;;;;;5082296;27;45636;-86
2021/10/06 03:36:28;;;;;;;;;4.00;1.00;;;;;;;;5082540;27;48038;-86
2021/10/06 03:38:53;;;;;;;;;0.00;0.00;;;;;;;;5100236;27;45306;-86
2021/10/06 03:41:18;;;;;;;;;3.00;0.25;;;;;;;;5102720;27;45477;-86
2021/10/06 03:43:44;;;;;;;;;2.25;0.00;;;;;;;;5088889;27;45359;-86
2021/10/06 03:46:09;;;;;;;;;0.50;0.00;;;;;;;;5095197;27;47661;-87
2021/10/06 03:48:34;;;;;;;;;0.00;0.00;;;;;;;;5101478;27;38372;-87
2021/10/06 03:51:00;;;;;;;;;1.00;1.00;;;;;;;;5118635;27;44552;-87
2021/10/06 03:53:25;;;;;;;;;2.00;0.00;;;;;;;;5104641;27;45294;-88
2021/10/06 03:55:50;;;;;;;;;1.67;1.00;;;;;;;;5085245;27;46982;-87
2021/10/06 03:58:16;;;;;;;;;3.00;0.00;;;;;;;;5084598;27;45308;-87
2021/10/06 04:00:42;;;;;;;;;0.00;0.00;;;;;;;;5102853;27;45301;-87
2021/10/06 04:03:13;;;;;;;;;2.25;0.00;;;;;;;;5102981;27;45395;-88
2021/10/06 04:05:39;;;;;;;;;0.50;0.00;;;;;;;;5104473;27;46353;-87
2021/10/06 04:08:04;;;;;;;;;0.00;0.00;;;;;;;;5107174;27;45312;-87
2021/10/06 04:10:30;;;;;;;;;3.75;1.25;;;;;;;;5118149;27;45245;-87
2021/10/06 04:12:55;;;;;;;;;1.00;0.75;;;;;;;;5086479;27;45214;-87
2021/10/06 04:15:20;;;;;;;;;7.00;0.00;;;;;;;;5103595;27;47144;-87
2021/10/06 04:17:47;;;;;;;;;5.00;1.00;;;;;;;;5103129;27;45513;-87
2021/10/06 04:20:12;;;;;;;;;1.00;0.75;;;;;;;;5085452;27;45348;-87
2021/10/06 04:22:37;;;;;;;;;4.67;1.00;;;;;;;;5103662;27;45584;-87
2021/10/06 04:25:04;;;;;;;;;0.00;0.00;;;;;;;;5085376;27;48263;-87
2021/10/06 04:27:30;;;;;;;;;0.50;0.00;;;;;;;;5102335;27;45675;-87
2021/10/06 04:29:55;;;;;;;;;2.50;0.50;;;;;;;;5084767;27;45393;-87
2021/10/06 04:32:20;;;;;;;;;1.00;0.00;;;;;;;;5084819;27;45741;-87
2021/10/06 04:34:46;;;;;;;;;0.00;0.00;;;;;;;;5103667;27;45433;-87
2021/10/06 04:37:11;;;;;;;;;1.33;0.00;;;;;;;;5096315;27;45564;-87
2021/10/06 04:39:37;;;;;;;;;1.67;0.00;;;;;;;;5103929;27;45416;-86
2021/10/06 04:42:02;;;;;;;;;0.25;0.25;;;;;;;;5084893;27;45383;-86
2021/10/06 04:44:27;;;;;;;;;3.00;2.00;;;;;;;;5104235;27;46138;-87
2021/10/06 04:46:52;;;;;;;;;1.75;0.75;;;;;;;;5086482;27;45434;-87
2021/10/06 04:49:18;;;;;;;;;2.00;0.00;;;;;;;;5098192;27;45416;-89
2021/10/06 04:51:43;;;;;;;;;5.50;0.00;;;;;;;;5103479;27;45411;-88
2021/10/06 04:54:09;;;;;;;;;1.00;0.00;;;;;;;;5084521;27;47114;-90
2021/10/06 04:56:34;;;;;;;;;2.75;1.00;;;;;;;;5099324;27;45415;-87
2021/10/06 04:58:59;;;;;;;;;2.67;0.00;;;;;;;;5096108;27;45389;-87
2021/10/06 05:01:24;;;;;;;;;2.00;1.00;;;;;;;;5100790;27;45301;-87
2021/10/06 05:03:50;;;;;;;;;3.00;0.00;;;;;;;;5093586;27;45310;-87
2021/10/06 05:06:15;;;;;;;;;1.75;1.00;;;;;;;;5094994;27;45409;-88
2021/10/06 05:08:40;;;;;;;;;1.00;1.00;;;;;;;;5094234;27;45374;-87
2021/10/06 05:11:05;;;;;;;;;1.00;1.00;;;;;;;;5096650;27;45542;-87
2021/10/06 05:13:30;;;;;;;;;1.67;1.00;;;;;;;;5096676;27;45424;-87
2021/10/06 05:15:56;;;;;;;;;0.33;0.33;;;;;;;;5083054;27;45982;-87
2021/10/06 05:18:21;;;;;;;;;2.67;1.00;;;;;;;;5093235;27;45485;-87
2021/10/06 05:20:46;;;;;;;;;3.00;1.00;;;;;;;;5091017;27;45350;-87
2021/10/06 05:23:11;;;;;;;;;3.00;0.00;;;;;;;;5095674;27;45432;-88
2021/10/06 05:25:37;;;;;;;;;3.33;1.00;;;;;;;;5121240;27;44706;-90
2021/10/06 05:28:02;;;;;;;;;1.00;1.00;;;;;;;;5127178;27;44859;-90
2021/10/06 05:30:28;;;;;;;;;3.25;1.25;;;;;;;;5124636;27;44899;-87
2021/10/06 05:32:53;;;;;;;;;4.00;1.00;;;;;;;;5104748;27;46431;-87
2021/10/06 05:35:19;;;;;;;;;0.50;0.00;;;;;;;;5101046;27;45175;-93
2021/10/06 05:37:44;;;;;;;;;0.25;0.25;;;;;;;;5104549;27;45470;-87
2021/10/06 05:40:10;;;;;;;;;1.00;0.75;;;;;;;;5084109;27;45461;-88
2021/10/06 05:42:35;;;;;;;;;1.75;1.50;;;;;;;;5099887;27;45335;-88
2021/10/06 05:45:00;;;;;;;;;1.00;1.00;;;;;;;;5083454;27;45463;-89
2021/10/06 05:47:26;;;;;;;;;8.75;1.75;;;;;;;;5101611;27;45502;-88
2021/10/06 05:49:54;;;;;;;;;1.75;0.50;;;;;;;;5102705;27;45345;-89
2021/10/06 05:52:22;;;;;;;;;1.25;0.50;;;;;;;;5100957;27;46141;-89
2021/10/06 05:54:48;;;;;;;;;1.75;1.25;;;;;;;;5082168;27;45511;-88
2021/10/06 05:57:13;;;;;;;;;2.25;1.00;;;;;;;;5100426;27;45405;-89
2021/10/06 05:59:38;;;;;;;;;1.00;1.00;;;;;;;;5102263;27;45573;-86
2021/10/06 06:02:04;;;;;;;;;4.00;1.00;;;;;;;;5100573;27;46640;-89
2021/10/06 06:04:29;;;;;;;;;1.00;1.00;;;;;;;;5085245;27;45470;-90
2021/10/06 06:06:54;;;;;;;;;2.50;1.00;;;;;;;;5084147;27;45415;-89
2021/10/06 06:09:21;;;;;;;;;2.25;0.75;;;;;;;;5097579;27;46456;-89
2021/10/06 06:11:47;;;;;;;;;2.00;1.00;;;;;;;;5101052;27;46166;-89
2021/10/06 06:14:12;;;;;;;;;1.00;1.00;;;;;;;;5098506;27;45335;-90
2021/10/06 06:16:37;;;;;;;;;3.67;1.00;;;;;;;;5101600;27;45523;-88
2021/10/06 06:19:03;;;;;;;;;4.00;1.00;;;;;;;;5101931;27;45392;-88
2021/10/06 06:21:28;;;;;;;;;1.00;1.00;;;;;;;;5073397;27;47013;-88
2021/10/06 06:23:53;;;;;;;;;2.75;1.75;;;;;;;;5101922;27;45297;-87
2021/10/06 06:26:18;;;;;;;;;3.33;1.00;;;;;;;;5102234;27;45282;-87
2021/10/06 06:28:44;;;;;;;;;5.00;2.00;;;;;;;;5099984;27;45605;-88
2021/10/06 06:31:10;;;;;;;;;2.00;1.00;;;;;;;;5076534;28;47164;-89
2021/10/06 06:33:35;;;;;;;;;1.25;1.00;;;;;;;;5080670;27;45571;-90
2021/10/06 06:36:01;;;;;;;;;2.00;2.00;;;;;;;;5082784;27;45470;-90
2021/10/06 06:38:29;;;;;;;;;2.00;1.00;;;;;;;;5095859;27;45471;-87
2021/10/06 06:40:56;;;;;;;;;8.00;1.00;;;;;;;;5093641;27;45946;-86
2021/10/06 06:43:21;;;;;;;;;1.50;1.00;;;;;;;;5093450;27;45426;-88
2021/10/06 06:45:47;;;;;;;;;1.75;0.75;;;;;;;;5095199;27;45419;-87
2021/10/06 06:48:13;;;;;;;;;1.00;1.00;;;;;;;;5078541;27;45552;-88
2021/10/06 06:50:38;;;;;;;;;1.00;1.00;;;;;;;;5080067;27;46361;-88
2021/10/06 06:53:03;;;;;;;;;5.00;3.25;;;;;;;;5080442;27;45398;-88
2021/10/06 06:55:29;;;;;;;;;3.50;1.00;;;;;;;;5097572;27;45979;-88
2021/10/06 06:57:54;;;;;;;;;3.50;2.50;;;;;;;;5098626;27;45286;-88
2021/10/06 07:00:19;;;;;;;;;1.75;1.75;;;;;;;;5097175;27;45479;-88
2021/10/06 07:02:44;;;;;;;;;1.75;1.50;;;;;;;;5079912;27;45418;-88
2021/10/06 07:05:10;;;;;;;;;3.00;1.00;;;;;;;;5094223;27;45366;-87
2021/10/06 07:07:35;;;;;;;;;3.50;1.00;;;;;;;;5102474;27;45540;-87
2021/10/06 07:10:01;;;;;;;;;2.50;1.00;;;;;;;;5097599;27;46201;-87
2021/10/06 07:12:26;;;;;;;;;5.00;2.50;;;;;;;;5081865;27;45314;-89
2021/10/06 07:14:51;;;;;;;;;2.50;2.00;;;;;;;;5082651;27;45304;-89
2021/10/06 07:17:18;;;;;;;;;2.75;2.00;;;;;;;;5099206;27;45384;-89
2021/10/06 07:19:44;;;;;;;;;3.00;1.00;;;;;;;;5081944;27;47200;-89
2021/10/06 07:22:09;;;;;;;;;3.00;2.00;;;;;;;;5081464;27;45310;-88
2021/10/06 07:24:34;;;;;;;;;3.50;0.00;;;;;;;;5079016;27;45409;-86
2021/10/06 07:27:00;;;;;;;;;7.75;1.25;;;;;;;;5099532;27;45529;-86
2021/10/06 07:29:25;;;;;;;;;1.75;1.00;;;;;;;;5068833;27;47927;-85
2021/10/06 07:31:51;;;;;;;;;3.00;1.75;;;;;;;;5099928;27;45628;-84
2021/10/06 07:34:16;;;;;;;;;2.50;1.00;;;;;;;;5099428;27;45550;-86
2021/10/06 07:36:42;;;;;;;;;1.50;1.50;;;;;;;;5082268;27;45534;-86
2021/10/06 07:39:08;;;;;;;;;3.25;1.00;;;;;;;;5096708;27;45411;-86
2021/10/06 07:41:33;;;;;;;;;4.50;2.00;;;;;;;;5100114;27;45389;-86
2021/10/06 07:43:59;;;;;;;;;3.50;3.50;;;;;;;;5097524;27;45525;-86
2021/10/06 07:46:24;;;;;;;;;1.50;0.50;;;;;;;;5099956;27;45297;-86
2021/10/06 07:48:50;;;;;;;;;5.00;1.25;;;;;;;;5100356;27;45310;-86
2021/10/06 07:51:16;;;;;;;;;2.50;1.50;;;;;;;;5100555;27;45245;-87
2021/10/06 07:53:41;;;;;;;;;3.00;1.00;;;;;;;;5100532;27;45582;-87
2021/10/06 07:56:06;;;;;;;;;1.75;1.00;;;;;;;;5100570;27;45239;-86
2021/10/06 07:58:32;;;;;;;;;1.50;1.00;;;;;;;;5097498;27;45320;-87
2021/10/06 08:01:00;;;;;;;;;6.50;2.50;;;;;;;;5090221;27;45255;-87
2021/10/06 08:03:25;;;;;;;;;6.00;2.50;;;;;;;;5082448;27;45465;-87
2021/10/06 08:05:53;;;;;;;;;4.00;0.25;;;;;;;;5100611;27;45559;-86
2021/10/06 08:08:18;;;;;;;;;5.50;1.75;;;;;;;;5100373;27;47483;-87
2021/10/06 08:10:46;;;;;;;;;2.75;2.00;;;;;;;;5081850;27;45322;-87
2021/10/06 08:13:11;;;;;;;;;4.75;4.00;;;;;;;;5100189;27;45326;-87
2021/10/06 08:15:37;;;;;;;;;4.00;2.75;;;;;;;;5081834;27;45409;-87
2021/10/06 08:18:03;;;;;;;;;3.75;2.00;;;;;;;;5099745;27;46348;-87
2021/10/06 08:20:32;;;;;;;;;5.50;1.75;;;;;;;;5100165;27;45297;-87
2021/10/06 08:23:01;;;;;;;;;7.75;2.00;;;;;;;;5100216;27;45551;-87
2021/10/06 08:25:28;;;;;;;;;3.00;2.00;;;;;;;;5099988;27;45452;-86
2021/10/06 08:27:54;;;;;;;;;2.25;1.75;;;;;;;;5083220;27;48047;-87
2021/10/06 08:30:22;;;;;;;;;3.75;0.00;;;;;;;;5089705;27;45385;-87
2021/10/06 08:32:50;;;;;;;;;5.25;1.50;;;;;;;;5071316;27;45434;-87
2021/10/06 08:35:19;;;;;;;;;3.00;1.00;;;;;;;;5085159;27;45345;-87
2021/10/06 08:37:44;;;;;;;;;2.00;2.00;;;;;;;;5086151;27;47707;-87
2021/10/06 08:40:17;;;;;;;;;5.25;1.75;;;;;;;;5104180;27;45344;-87
2021/10/06 08:42:42;;;;;;;;;1.00;1.00;;;;;;;;5072707;27;45429;-87
2021/10/06 08:45:08;;;;;;;;;1.00;1.00;;;;;;;;5103358;27;45211;-87
2021/10/06 08:47:35;;;;;;;;;3.75;1.00;;;;;;;;5084568;27;47077;-87
2021/10/06 08:50:11;;;;;;;;;0.50;0.50;;;;;;;;5084767;27;45566;-86
2021/10/06 08:52:36;;;;;;;;;2.50;1.50;;;;;;;;5103572;27;45300;-87
2021/10/06 08:55:12;;;;;;;;;;;;;;;;;;;;;
2021/10/06 08:57:38;;;;;;;;;2.50;0.75;;;;;;;;5101117;27;75766;-87
2021/10/06 09:00:07;;;;;;;;;1.75;1.00;;;;;;;;5082946;27;45492;-87
2021/10/06 09:02:42;;;;;;;;;3.00;1.50;;;;;;;;5081514;27;45431;-87
2021/10/06 09:05:09;;;;;;;;;2.25;0.50;;;;;;;;5082598;27;45595;-87
2021/10/06 09:07:54;;;;;;;;;4.00;0.00;;;;;;;;5081995;27;47160;-88
2021/10/06 09:10:19;;;;;;;;;0.25;0.25;;;;;;;;5101317;27;45469;-86
2021/10/06 09:13:01;;;;;;;;;1.75;1.00;;;;;;;;5082522;27;45679;-88
2021/10/06 09:15:28;;;;;;;;;6.25;1.25;;;;;;;;5099538;27;46420;-88
2021/10/06 09:17:54;;;;;;;;;4.25;1.75;;;;;;;;5086448;27;48312;-86
2021/10/06 09:20:20;;;;;;;;;0.00;0.00;;;;;;;;5077884;27;45454;-86
2021/10/06 09:22:59;;;;;;;;;1.50;0.75;;;;;;;;5082254;27;45425;-87
2021/10/06 09:25:27;;;;;;;;;1.00;0.50;;;;;;;;5100048;27;45217;-87
2021/10/06 09:27:52;;;;;;;;;1.50;0.00;;;;;;;;5098037;27;45466;-87
2021/10/06 09:30:17;;;;;;;;;2.25;0.50;;;;;;;;5096636;27;45520;-88
2021/10/06 09:32:44;;;;;;;;;3.75;2.00;;;;;;;;5083894;27;45456;-88
2021/10/06 09:35:13;;;;;;;;;2.00;1.25;;;;;;;;5101973;27;45492;-85
2021/10/06 09:37:40;;;;;;;;;2.00;1.00;;;;;;;;5085435;27;48128;-86
2021/10/06 09:40:08;;;;;;;;;1.00;1.00;;;;;;;;5102770;27;45481;-87
2021/10/06 09:43:10;;;;;;;;;2.50;0.75;;;;;;;;5102317;27;45472;-87
2021/10/06 09:45:48;;;;;;;;;;;;;;;;;;;;;
2021/10/06 09:48:15;;;;;;;;;4.00;1.75;;;;;;;;5096183;27;74368;-87
2021/10/06 09:50:45;;;;;;;;;1.00;1.00;;;;;;;;5100802;27;45306;-87
2021/10/06 09:53:14;;;;;;;;;3.00;2.75;;;;;;;;5081899;27;45449;-87
2021/10/06 09:55:52;;;;;;;;;;;;;;;;;;;;;
2021/10/06 09:58:18;;;;;;;;;2.00;1.00;;;;;;;;5095497;27;75960;-88
2021/10/06 10:01:01;;;;;;;;;1.50;1.50;;;;;;;;5096440;27;45365;-90
2021/10/06 10:03:29;;;;;;;;;2.00;1.00;;;;;;;;5082903;27;45327;-88
2021/10/06 10:05:55;;;;;;;;;0.75;0.75;;;;;;;;5089343;27;45433;-88
2021/10/06 10:08:28;;;;;;;;;3.50;2.00;;;;;;;;5104021;27;45318;-87
2021/10/06 10:10:53;;;;;;;;;3.25;1.00;;;;;;;;5090465;27;45422;-88
2021/10/06 10:13:24;;;;;;;;;3.00;2.50;;;;;;;;5084404;27;45740;-87
2021/10/06 10:15:49;;;;;;;;;1.75;1.75;;;;;;;;5103981;27;44931;-88
2021/10/06 10:18:17;;;;;;;;;3.25;1.25;;;;;;;;5103718;27;46912;-88
2021/10/06 10:20:44;;;;;;;;;2.25;2.25;;;;;;;;5088508;27;44854;-88
2021/10/06 10:23:13;;;;;;;;;6.25;3.75;;;;;;;;5102786;27;45438;-88
2021/10/06 10:25:40;;;;;;;;;6.00;3.25;;;;;;;;5100259;27;45727;-88
2021/10/06 10:28:13;;;;;;;;;4.25;3.00;;;;;;;;5099316;27;45628;-88
2021/10/06 10:30:39;;;;;;;;;2.75;2.00;;;;;;;;5075367;27;45508;-87
2021/10/06 10:33:09;;;;;;;;;5.00;2.00;;;;;;;;5082097;27;46396;-87
2021/10/06 10:36:09;;;;;;;;;2.50;2.00;;;;;;;;5099054;27;45483;-93
2021/10/06 10:38:37;;;;;;;;;5.00;2.00;;;;;;;;5068838;27;47135;-86
2021/10/06 10:41:03;;;;;;;;;2.75;2.00;;;;;;;;5074542;27;45417;-84
2021/10/06 10:43:31;;;;;;;;;3.25;1.50;;;;;;;;5078037;27;45296;-87
2021/10/06 10:46:00;;;;;;;;;6.00;2.25;;;;;;;;5095281;27;45308;-85
2021/10/06 10:48:31;;;;;;;;;3.50;2.00;;;;;;;;5094540;27;46111;-85
2021/10/06 10:50:56;;;;;;;;;2.00;1.00;;;;;;;;5097285;27;45421;-83
2021/10/06 10:53:42;;;;;;;;;2.00;2.00;;;;;;;;5080182;27;45264;-86
2021/10/06 10:56:07;;;;;;;;;5.75;2.00;;;;;;;;5094503;27;45679;-87
2021/10/06 10:58:40;;;;;;;;;3.50;2.75;;;;;;;;5094893;27;45214;-86
2021/10/06 11:01:13;;;;;;;;;3.00;1.75;;;;;;;;5094601;27;45555;-85
2021/10/06 11:03:57;;;;;;;;;5.50;2.00;;;;;;;;5093256;27;45334;-86
2021/10/06 11:06:38;;;;;;;;;5.00;4.00;;;;;;;;5091901;27;45902;-86
2021/10/06 11:09:22;;;;;;;;;4.25;2.00;;;;;;;;5083124;27;46327;-85
2021/10/06 11:11:57;;;;;;;;;4.25;3.50;;;;;;;;5071575;27;45461;-85
2021/10/06 11:14:22;;;;;;;;;7.00;4.00;;;;;;;;5097558;27;46433;-85
2021/10/06 11:17:07;;;;;;;;;3.25;3.25;;;;;;;;5094385;27;45947;-85
2021/10/06 11:19:48;;;;;;;;;3.75;3.00;;;;;;;;5091009;27;46019;-86
2021/10/06 11:22:26;;;;;;;;;4.50;4.50;;;;;;;;5070938;27;45449;-88
2021/10/06 11:24:54;;;;;;;;;4.00;3.00;;;;;;;;5093173;27;45517;-86
2021/10/06 11:27:40;;;;;;;;;4.50;3.25;;;;;;;;5078301;27;46211;-89
2021/10/06 11:30:05;;;;;;;;;2.25;1.50;;;;;;;;5100508;27;45995;-87
2021/10/06 11:32:30;;;;;;;;;2.00;2.00;;;;;;;;5083825;27;46136;-89
2021/10/06 11:34:56;;;;;;;;;4.00;3.00;;;;;;;;5084110;27;45443;-85
2021/10/06 11:37:23;;;;;;;;;3.50;2.00;;;;;;;;5080170;27;45531;-86
2021/10/06 11:39:48;;;;;;;;;2.00;2.00;;;;;;;;5094385;27;45399;-87
2021/10/06 11:42:14;;;;;;;;;6.00;1.75;;;;;;;;5078042;27;45445;-86
2021/10/06 11:44:40;;;;;;;;;3.50;1.00;;;;;;;;5080230;27;45264;-86
2021/10/06 11:47:05;;;;;;;;;0.00;0.00;;;;;;;;5083659;27;45692;-86
2021/10/06 11:49:32;;;;;;;;;1.25;1.25;;;;;;;;5100637;27;45637;-86
2021/10/06 11:51:58;;;;;;;;;3.00;2.00;;;;;;;;5095942;27;45278;-86
2021/10/06 11:54:26;;;;;;;;;6.00;1.25;;;;;;;;5087880;27;45250;-86
2021/10/06 11:56:56;;;;;;;;;2.75;2.00;;;;;;;;5105382;27;45450;-86
2021/10/06 12:16:46;;;;;;;;;5.00;2.00;;;;;;;;5053699;28;45428;-87
2021/10/06 12:19:27;;;;;;;;;2.75;2.00;;;;;;;;4995582;28;46446;-87
2021/10/06 12:22:13;;;;;;;;;1.75;1.75;;;;;;;;5027938;28;47188;-85
2021/10/06 12:30:19;;;;;;;;;2.50;2.50;;;;;;;;5874023;22;46381;-86
2021/10/06 12:32:46;;;;;;;;;2.00;2.00;;;;;;;;5055694;28;48431;-84
2021/10/06 12:35:25;;;;;;;;;4.50;4.50;;;;;;;;5046283;28;45529;-85
2021/10/06 12:37:54;;;;;;;;;3.75;3.00;;;;;;;;5049030;28;45330;-85
2021/10/06 12:40:33;;;;;;;;;4.00;3.00;;;;;;;;5042115;28;45294;-90
2021/10/06 12:43:14;;;;;;;;;2.75;2.00;;;;;;;;5042681;28;48219;-86
2021/10/06 12:46:03;;;;;;;;;2.25;1.75;;;;;;;;5044439;28;45443;-87
2021/10/06 12:48:41;;;;;;;;;4.50;2.00;;;;;;;;5042270;28;45585;-86
2021/10/06 12:51:10;;;;;;;;;2.00;2.00;;;;;;;;5037531;28;45497;-86
2021/10/06 12:53:49;;;;;;;;;2.25;2.00;;;;;;;;5045540;28;45444;-87
2021/10/06 12:56:33;;;;;;;;;1.75;1.75;;;;;;;;5043807;28;45280;-88
2021/10/06 12:59:09;;;;;;;;;3.00;2.00;;;;;;;;5041665;28;45367;-88
2021/10/06 13:01:39;;;;;;;;;3.00;1.50;;;;;;;;5043031;28;45422;-86
2021/10/06 13:04:07;;;;;;;;;3.00;1.00;;;;;;;;5057582;28;45420;-90
2021/10/06 13:06:33;;;;;;;;;1.00;1.00;;;;;;;;5043420;28;45470;-85
2021/10/06 13:09:00;;;;;;;;;1.00;1.00;;;;;;;;5047869;28;45435;-86
2021/10/06 13:11:26;;;;;;;;;3.00;1.00;;;;;;;;5043925;28;45312;-85
2021/10/06 13:13:53;;;;;;;;;1.00;1.00;;;;;;;;5042082;28;46347;-86
2021/10/06 13:16:18;;;;;;;;;2.00;2.00;;;;;;;;5041675;28;45478;-87
2021/10/06 13:18:59;;;;;;;;;;;;;;;;;;;;;
2021/10/06 13:21:27;;;;;;;;;1.00;1.00;;;;;;;;5029537;28;71787;-87
2021/10/06 13:23:55;;;;;;;;;2.00;2.00;;;;;;;;5054975;28;46231;-88
2021/10/06 13:26:20;;;;;;;;;1.00;1.00;;;;;;;;5040598;28;45823;-84
2021/10/06 13:28:46;;;;;;;;;3.00;1.50;;;;;;;;5042838;28;45236;-87
2021/10/06 13:31:22;;;;;;;;;3.67;1.67;;;;;;;;5040276;28;46095;-88
2021/10/06 13:33:47;;;;;;;;;4.50;2.00;;;;;;;;5050117;28;45438;-87
2021/10/06 13:36:13;;;;;;;;;3.00;1.25;;;;;;;;5046825;28;45917;-89
2021/10/06 13:38:39;;;;;;;;;2.00;2.00;;;;;;;;5051418;28;45422;-89
2021/10/06 13:41:05;;;;;;;;;2.50;1.75;;;;;;;;5044872;28;45462;-88
2021/10/06 13:43:31;;;;;;;;;4.50;2.75;;;;;;;;5049833;28;46265;-89
2021/10/06 13:45:56;;;;;;;;;1.00;1.00;;;;;;;;5040955;28;45306;-90
2021/10/06 13:48:22;;;;;;;;;1.25;1.25;;;;;;;;5054762;28;45317;-90
2021/10/06 13:50:47;;;;;;;;;3.25;1.00;;;;;;;;5046515;28;45315;-90
2021/10/06 13:53:12;;;;;;;;;1.00;1.00;;;;;;;;5042742;28;45376;-90
2021/10/06 13:55:45;;;;;;;;;0.75;0.75;;;;;;;;5053972;28;45417;-92
2021/10/06 13:58:10;;;;;;;;;2.00;0.25;;;;;;;;5060595;28;45376;-89
2021/10/06 14:00:36;;;;;;;;;0.00;0.00;;;;;;;;5047541;28;45431;-89
2021/10/06 14:03:01;;;;;;;;;0.25;0.25;;;;;;;;5048181;28;45384;-91
2021/10/06 14:05:28;;;;;;;;;2.75;2.00;;;;;;;;5053337;28;45534;-88
2021/10/06 14:07:53;;;;;;;;;1.50;1.00;;;;;;;;5040536;28;45468;-89
2021/10/06 14:10:20;;;;;;;;;1.50;1.50;;;;;;;;5041250;28;45316;-90
2021/10/06 14:12:45;;;;;;;;;2.75;1.00;;;;;;;;5049901;28;45395;-90
2021/10/06 14:15:10;;;;;;;;;1.00;1.00;;;;;;;;5060588;28;45595;-92
2021/10/06 14:17:35;;;;;;;;;1.50;0.00;;;;;;;;5038863;28;45401;-91
2021/10/06 14:20:01;;;;;;;;;3.00;1.00;;;;;;;;5031812;28;45606;-90
2021/10/06 14:22:26;;;;;;;;;3.75;1.00;;;;;;;;5042632;28;46552;-91
2021/10/06 14:24:54;;;;;;;;;1.25;1.25;;;;;;;;5052292;28;45791;-90
2021/10/06 14:27:19;;;;;;;;;0.25;0.00;;;;;;;;5054800;28;45465;-92
2021/10/06 14:29:44;;;;;;;;;0.50;0.50;;;;;;;;5061825;28;44784;-91
2021/10/06 14:32:10;;;;;;;;;0.25;0.00;;;;;;;;5053548;28;47179;-91
2021/10/06 14:34:35;;;;;;;;;1.00;1.00;;;;;;;;5059792;28;45997;-91
2021/10/06 14:37:00;;;;;;;;;2.25;0.75;;;;;;;;5053444;28;45407;-90
2021/10/06 14:39:26;;;;;;;;;1.00;1.00;;;;;;;;5058997;28;46019;-90
2021/10/06 14:41:51;;;;;;;;;2.00;1.00;;;;;;;;5046164;28;47256;-92
2021/10/06 14:44:16;;;;;;;;;3.50;1.00;;;;;;;;5046250;28;45386;-91
2021/10/06 14:46:41;;;;;;;;;2.00;1.50;;;;;;;;5039259;28;45389;-91
2021/10/06 14:49:07;;;;;;;;;3.50;0.00;;;;;;;;5037920;28;45589;-92
2021/10/06 14:51:32;;;;;;;;;1.75;1.25;;;;;;;;5040836;28;46876;-91
2021/10/06 14:53:58;;;;;;;;;1.00;1.00;;;;;;;;5039672;28;45854;-91
2021/10/06 14:56:23;;;;;;;;;1.00;1.00;;;;;;;;5032341;28;45269;-91
2021/10/06 14:58:48;;;;;;;;;1.00;1.00;;;;;;;;5038639;28;45978;-90
2021/10/06 15:01:15;;;;;;;;;3.00;0.75;;;;;;;;5036682;28;47629;-91
2021/10/06 15:03:43;;;;;;;;;0.00;0.00;;;;;;;;5047415;28;45099;-92
2021/10/06 15:06:09;;;;;;;;;2.00;0.25;;;;;;;;5035815;28;45521;-90
2021/10/06 15:08:35;;;;;;;;;3.25;1.25;;;;;;;;5036970;28;45441;-91